sensor_id;sensor_type;location;lat;lon;timestamp;P1;durP1;ratioP1;P2;durP2;ratioP2
4704;SDS011;2366;51.332;6.610;2023-07-20T00:02:12;4.33;;;3.23;;
4704;SDS011;2366;51.332;6.610;2023-07-20T00:04:38;7.00;;;4.60;;
4704;SDS011;2366;51.332;6.610;2023-07-20T00:07:03;7.77;;;4.80;;
4704;SDS011;2366;51.332;6.610;2023-07-20T00:09:29;7.03;;;3.83;;
4704;SDS011;2366;51.332;6.610;2023-07-20T00:11:55;7.60;;;4.77;;
4704;SDS011;2366;51.332;6.610;2023-07-20T00:14:20;9.67;;;3.80;;
4704;SDS011;2366;51.332;6.610;2023-07-20T00:16:46;5.63;;;3.90;;
4704;SDS011;2366;51.332;6.610;2023-07-20T00:19:11;5.77;;;3.40;;
4704;SDS011;2366;51.332;6.610;2023-07-20T00:21:37;7.68;;;4.15;;
4704;SDS011;2366;51.332;6.610;2023-07-20T00:24:05;4.10;;;3.70;;
4704;SDS011;2366;51.332;6.610;2023-07-20T00:26:31;4.10;;;3.70;;
4704;SDS011;2366;51.332;6.610;2023-07-20T00:28:56;3.57;;;3.27;;
4704;SDS011;2366;51.332;6.610;2023-07-20T00:31:21;4.47;;;3.07;;
4704;SDS011;2366;51.332;6.610;2023-07-20T00:33:47;4.00;;;3.60;;
4704;SDS011;2366;51.332;6.610;2023-07-20T00:36:13;6.72;;;3.85;;
4704;SDS011;2366;51.332;6.610;2023-07-20T00:38:38;7.80;;;3.47;;
4704;SDS011;2366;51.332;6.610;2023-07-20T00:41:04;5.37;;;3.70;;
4704;SDS011;2366;51.332;6.610;2023-07-20T00:43:29;7.10;;;3.63;;
4704;SDS011;2366;51.332;6.610;2023-07-20T00:45:55;3.83;;;3.53;;
4704;SDS011;2366;51.332;6.610;2023-07-20T00:48:21;7.90;;;4.20;;
4704;SDS011;2366;51.332;6.610;2023-07-20T00:50:47;5.50;;;4.40;;
4704;SDS011;2366;51.332;6.610;2023-07-20T00:53:13;4.30;;;3.90;;
4704;SDS011;2366;51.332;6.610;2023-07-20T00:55:39;5.97;;;4.70;;
4704;SDS011;2366;51.332;6.610;2023-07-20T00:58:04;6.07;;;4.80;;
4704;SDS011;2366;51.332;6.610;2023-07-20T01:00:30;7.37;;;4.77;;
4704;SDS011;2366;51.332;6.610;2023-07-20T01:02:56;5.67;;;4.93;;
4704;SDS011;2366;51.332;6.610;2023-07-20T01:05:21;5.70;;;4.37;;
4704;SDS011;2366;51.332;6.610;2023-07-20T01:08:37;6.82;;;4.63;;
4704;SDS011;2366;51.332;6.610;2023-07-20T01:11:12;10.98;;;5.25;;
4704;SDS011;2366;51.332;6.610;2023-07-20T01:13:53;7.18;;;5.40;;
4704;SDS011;2366;51.332;6.610;2023-07-20T01:16:18;6.67;;;5.00;;
4704;SDS011;2366;51.332;6.610;2023-07-20T01:18:44;5.93;;;4.53;;
4704;SDS011;2366;51.332;6.610;2023-07-20T01:21:11;5.87;;;4.63;;
4704;SDS011;2366;51.332;6.610;2023-07-20T01:32:04;7.05;;;4.90;;
4704;SDS011;2366;51.332;6.610;2023-07-20T01:34:33;9.82;;;4.93;;
4704;SDS011;2366;51.332;6.610;2023-07-20T01:37:00;5.85;;;4.60;;
4704;SDS011;2366;51.332;6.610;2023-07-20T01:39:27;9.68;;;4.82;;
4704;SDS011;2366;51.332;6.610;2023-07-20T01:41:53;7.68;;;5.53;;
4704;SDS011;2366;51.332;6.610;2023-07-20T01:44:18;6.03;;;4.93;;
4704;SDS011;2366;51.332;6.610;2023-07-20T01:46:44;9.40;;;5.27;;
4704;SDS011;2366;51.332;6.610;2023-07-20T01:49:09;8.83;;;5.87;;
4704;SDS011;2366;51.332;6.610;2023-07-20T01:51:34;7.83;;;5.70;;
4704;SDS011;2366;51.332;6.610;2023-07-20T01:54:00;9.17;;;6.00;;
4704;SDS011;2366;51.332;6.610;2023-07-20T01:56:26;6.23;;;4.50;;
4704;SDS011;2366;51.332;6.610;2023-07-20T01:58:51;4.57;;;4.13;;
4704;SDS011;2366;51.332;6.610;2023-07-20T02:01:16;7.73;;;4.93;;
4704;SDS011;2366;51.332;6.610;2023-07-20T02:03:42;8.53;;;4.63;;
4704;SDS011;2366;51.332;6.610;2023-07-20T02:06:07;7.53;;;5.90;;
4704;SDS011;2366;51.332;6.610;2023-07-20T02:08:32;8.80;;;4.97;;
4704;SDS011;2366;51.332;6.610;2023-07-20T02:10:58;5.90;;;5.27;;
4704;SDS011;2366;51.332;6.610;2023-07-20T02:13:23;6.97;;;4.53;;
4704;SDS011;2366;51.332;6.610;2023-07-20T02:15:49;5.30;;;3.20;;
4704;SDS011;2366;51.332;6.610;2023-07-20T02:18:15;10.05;;;4.53;;
4704;SDS011;2366;51.332;6.610;2023-07-20T02:20:41;5.23;;;4.60;;
4704;SDS011;2366;51.332;6.610;2023-07-20T02:23:07;7.20;;;4.70;;
4704;SDS011;2366;51.332;6.610;2023-07-20T02:25:32;8.30;;;4.53;;
4704;SDS011;2366;51.332;6.610;2023-07-20T02:27:57;6.27;;;4.80;;
4704;SDS011;2366;51.332;6.610;2023-07-20T02:30:23;8.87;;;5.10;;
4704;SDS011;2366;51.332;6.610;2023-07-20T02:32:49;11.10;;;4.10;;
4704;SDS011;2366;51.332;6.610;2023-07-20T02:35:15;7.87;;;3.90;;
4704;SDS011;2366;51.332;6.610;2023-07-20T02:37:40;4.88;;;4.35;;
4704;SDS011;2366;51.332;6.610;2023-07-20T02:40:06;11.03;;;5.33;;
4704;SDS011;2366;51.332;6.610;2023-07-20T02:42:32;4.78;;;4.35;;
4704;SDS011;2366;51.332;6.610;2023-07-20T02:44:58;4.70;;;4.10;;
4704;SDS011;2366;51.332;6.610;2023-07-20T02:47:23;9.27;;;4.63;;
4704;SDS011;2366;51.332;6.610;2023-07-20T02:49:49;11.80;;;7.43;;
4704;SDS011;2366;51.332;6.610;2023-07-20T02:52:14;10.50;;;4.30;;
4704;SDS011;2366;51.332;6.610;2023-07-20T02:54:39;7.67;;;6.10;;
4704;SDS011;2366;51.332;6.610;2023-07-20T02:57:05;12.03;;;4.33;;
4704;SDS011;2366;51.332;6.610;2023-07-20T02:59:30;6.33;;;4.53;;
4704;SDS011;2366;51.332;6.610;2023-07-20T03:01:57;6.88;;;5.45;;
4704;SDS011;2366;51.332;6.610;2023-07-20T03:04:25;12.30;;;6.15;;
4704;SDS011;2366;51.332;6.610;2023-07-20T03:06:52;6.78;;;4.60;;
4704;SDS011;2366;51.332;6.610;2023-07-20T03:09:17;11.17;;;6.43;;
4704;SDS011;2366;51.332;6.610;2023-07-20T03:11:42;6.80;;;5.30;;
4704;SDS011;2366;51.332;6.610;2023-07-20T03:14:08;12.77;;;5.40;;
4704;SDS011;2366;51.332;6.610;2023-07-20T03:16:35;4.32;;;3.90;;
4704;SDS011;2366;51.332;6.610;2023-07-20T03:19:01;5.03;;;4.40;;
4704;SDS011;2366;51.332;6.610;2023-07-20T03:21:26;11.20;;;5.43;;
4704;SDS011;2366;51.332;6.610;2023-07-20T03:23:52;6.50;;;4.87;;
4704;SDS011;2366;51.332;6.610;2023-07-20T03:26:17;9.40;;;5.87;;
4704;SDS011;2366;51.332;6.610;2023-07-20T03:28:42;10.03;;;6.57;;
4704;SDS011;2366;51.332;6.610;2023-07-20T03:31:08;9.50;;;5.80;;
4704;SDS011;2366;51.332;6.610;2023-07-20T03:33:33;9.70;;;5.90;;
4704;SDS011;2366;51.332;6.610;2023-07-20T03:35:59;8.00;;;6.60;;
4704;SDS011;2366;51.332;6.610;2023-07-20T03:38:25;10.60;;;8.23;;
4704;SDS011;2366;51.332;6.610;2023-07-20T03:40:52;11.52;;;6.85;;
4704;SDS011;2366;51.332;6.610;2023-07-20T03:43:22;9.52;;;6.97;;
4704;SDS011;2366;51.332;6.610;2023-07-20T03:45:48;10.07;;;7.65;;
4704;SDS011;2366;51.332;6.610;2023-07-20T03:48:18;16.40;;;6.78;;
4704;SDS011;2366;51.332;6.610;2023-07-20T03:50:45;13.65;;;7.65;;
4704;SDS011;2366;51.332;6.610;2023-07-20T03:53:11;12.68;;;7.28;;
4704;SDS011;2366;51.332;6.610;2023-07-20T03:55:37;11.40;;;7.30;;
4704;SDS011;2366;51.332;6.610;2023-07-20T03:58:02;12.37;;;7.53;;
4704;SDS011;2366;51.332;6.610;2023-07-20T04:00:28;9.70;;;6.23;;
4704;SDS011;2366;51.332;6.610;2023-07-20T04:02:54;13.87;;;7.33;;
4704;SDS011;2366;51.332;6.610;2023-07-20T04:05:19;10.73;;;6.90;;
4704;SDS011;2366;51.332;6.610;2023-07-20T04:07:45;22.10;;;8.67;;
4704;SDS011;2366;51.332;6.610;2023-07-20T04:10:10;12.10;;;7.40;;
4704;SDS011;2366;51.332;6.610;2023-07-20T04:12:35;14.97;;;7.70;;
4704;SDS011;2366;51.332;6.610;2023-07-20T04:15:01;14.33;;;7.73;;
4704;SDS011;2366;51.332;6.610;2023-07-20T04:17:28;10.60;;;7.55;;
4704;SDS011;2366;51.332;6.610;2023-07-20T04:19:53;13.43;;;7.67;;
4704;SDS011;2366;51.332;6.610;2023-07-20T04:22:19;13.47;;;7.90;;
4704;SDS011;2366;51.332;6.610;2023-07-20T04:24:45;10.13;;;7.17;;
4704;SDS011;2366;51.332;6.610;2023-07-20T04:27:10;14.67;;;6.97;;
4704;SDS011;2366;51.332;6.610;2023-07-20T04:29:35;18.47;;;10.10;;
4704;SDS011;2366;51.332;6.610;2023-07-20T04:32:01;17.53;;;7.40;;
4704;SDS011;2366;51.332;6.610;2023-07-20T04:34:26;11.93;;;7.57;;
4704;SDS011;2366;51.332;6.610;2023-07-20T04:36:52;11.20;;;7.00;;
4704;SDS011;2366;51.332;6.610;2023-07-20T04:39:18;13.63;;;8.60;;
4704;SDS011;2366;51.332;6.610;2023-07-20T04:41:43;11.53;;;8.13;;
4704;SDS011;2366;51.332;6.610;2023-07-20T04:44:09;10.40;;;8.23;;
4704;SDS011;2366;51.332;6.610;2023-07-20T04:46:34;17.10;;;9.17;;
4704;SDS011;2366;51.332;6.610;2023-07-20T04:48:59;17.50;;;9.53;;
4704;SDS011;2366;51.332;6.610;2023-07-20T04:51:26;13.85;;;10.15;;
4704;SDS011;2366;51.332;6.610;2023-07-20T04:53:51;11.40;;;8.20;;
4704;SDS011;2366;51.332;6.610;2023-07-20T04:56:17;20.33;;;10.40;;
4704;SDS011;2366;51.332;6.610;2023-07-20T04:58:42;12.27;;;8.43;;
4704;SDS011;2366;51.332;6.610;2023-07-20T05:01:08;10.50;;;8.37;;
4704;SDS011;2366;51.332;6.610;2023-07-20T05:03:33;19.93;;;8.87;;
4704;SDS011;2366;51.332;6.610;2023-07-20T05:05:58;15.70;;;9.27;;
4704;SDS011;2366;51.332;6.610;2023-07-20T05:08:24;10.00;;;8.93;;
4704;SDS011;2366;51.332;6.610;2023-07-20T05:10:50;13.30;;;8.40;;
4704;SDS011;2366;51.332;6.610;2023-07-20T05:13:16;11.80;;;7.47;;
4704;SDS011;2366;51.332;6.610;2023-07-20T05:15:41;17.13;;;9.07;;
4704;SDS011;2366;51.332;6.610;2023-07-20T05:18:06;11.50;;;9.00;;
4704;SDS011;2366;51.332;6.610;2023-07-20T05:20:33;11.10;;;9.23;;
4704;SDS011;2366;51.332;6.610;2023-07-20T05:22:59;12.27;;;9.30;;
4704;SDS011;2366;51.332;6.610;2023-07-20T05:25:25;11.50;;;9.23;;
4704;SDS011;2366;51.332;6.610;2023-07-20T05:27:51;13.50;;;9.43;;
4704;SDS011;2366;51.332;6.610;2023-07-20T05:30:17;15.03;;;9.10;;
4704;SDS011;2366;51.332;6.610;2023-07-20T05:32:43;10.90;;;8.05;;
4704;SDS011;2366;51.332;6.610;2023-07-20T05:35:10;10.93;;;8.25;;
4704;SDS011;2366;51.332;6.610;2023-07-20T05:37:36;11.90;;;8.75;;
4704;SDS011;2366;51.332;6.610;2023-07-20T05:40:03;12.57;;;8.75;;
4704;SDS011;2366;51.332;6.610;2023-07-20T05:42:29;9.60;;;7.45;;
4704;SDS011;2366;51.332;6.610;2023-07-20T05:44:55;6.97;;;6.37;;
4704;SDS011;2366;51.332;6.610;2023-07-20T05:47:20;15.80;;;9.13;;
4704;SDS011;2366;51.332;6.610;2023-07-20T05:49:46;13.07;;;7.50;;
4704;SDS011;2366;51.332;6.610;2023-07-20T05:52:11;10.67;;;7.00;;
4704;SDS011;2366;51.332;6.610;2023-07-20T05:54:36;6.90;;;5.50;;
4704;SDS011;2366;51.332;6.610;2023-07-20T05:57:02;8.87;;;5.90;;
4704;SDS011;2366;51.332;6.610;2023-07-20T05:59:27;7.70;;;5.27;;
4704;SDS011;2366;51.332;6.610;2023-07-20T06:01:54;6.60;;;4.43;;
4704;SDS011;2366;51.332;6.610;2023-07-20T06:04:20;8.83;;;5.83;;
4704;SDS011;2366;51.332;6.610;2023-07-20T06:06:45;6.43;;;5.83;;
4704;SDS011;2366;51.332;6.610;2023-07-20T06:09:11;6.67;;;5.00;;
4704;SDS011;2366;51.332;6.610;2023-07-20T06:11:37;5.73;;;5.07;;
4704;SDS011;2366;51.332;6.610;2023-07-20T06:14:03;5.73;;;4.10;;
4704;SDS011;2366;51.332;6.610;2023-07-20T06:16:29;4.77;;;3.60;;
4704;SDS011;2366;51.332;6.610;2023-07-20T06:18:55;2.80;;;2.60;;
4704;SDS011;2366;51.332;6.610;2023-07-20T06:21:20;3.73;;;3.33;;
4704;SDS011;2366;51.332;6.610;2023-07-20T06:23:46;3.50;;;2.50;;
4704;SDS011;2366;51.332;6.610;2023-07-20T06:26:11;3.50;;;3.10;;
4704;SDS011;2366;51.332;6.610;2023-07-20T06:28:37;4.10;;;2.90;;
4704;SDS011;2366;51.332;6.610;2023-07-20T06:31:03;4.27;;;2.60;;
4704;SDS011;2366;51.332;6.610;2023-07-20T06:33:29;3.63;;;2.93;;
4704;SDS011;2366;51.332;6.610;2023-07-20T06:35:54;2.93;;;2.73;;
4704;SDS011;2366;51.332;6.610;2023-07-20T06:38:21;3.00;;;2.80;;
4704;SDS011;2366;51.332;6.610;2023-07-20T06:40:48;4.20;;;2.60;;
4704;SDS011;2366;51.332;6.610;2023-07-20T06:43:13;3.73;;;2.80;;
4704;SDS011;2366;51.332;6.610;2023-07-20T06:45:39;2.50;;;2.30;;
4704;SDS011;2366;51.332;6.610;2023-07-20T06:48:04;3.33;;;2.10;;
4704;SDS011;2366;51.332;6.610;2023-07-20T06:50:30;2.63;;;2.43;;
4704;SDS011;2366;51.332;6.610;2023-07-20T06:52:55;3.23;;;2.03;;
4704;SDS011;2366;51.332;6.610;2023-07-20T06:55:21;2.47;;;2.27;;
4704;SDS011;2366;51.332;6.610;2023-07-20T06:57:46;2.60;;;2.00;;
4704;SDS011;2366;51.332;6.610;2023-07-20T07:00:12;2.03;;;1.83;;
4704;SDS011;2366;51.332;6.610;2023-07-20T07:02:37;3.70;;;2.30;;
4704;SDS011;2366;51.332;6.610;2023-07-20T07:05:03;2.00;;;1.47;;
4704;SDS011;2366;51.332;6.610;2023-07-20T07:07:29;2.70;;;2.10;;
4704;SDS011;2366;51.332;6.610;2023-07-20T07:09:54;1.77;;;1.67;;
4704;SDS011;2366;51.332;6.610;2023-07-20T07:12:20;2.67;;;2.37;;
4704;SDS011;2366;51.332;6.610;2023-07-20T07:14:45;1.60;;;1.50;;
4704;SDS011;2366;51.332;6.610;2023-07-20T07:17:10;2.27;;;1.73;;
4704;SDS011;2366;51.332;6.610;2023-07-20T07:19:36;4.53;;;2.50;;
4704;SDS011;2366;51.332;6.610;2023-07-20T07:22:02;2.40;;;2.20;;
4704;SDS011;2366;51.332;6.610;2023-07-20T07:24:28;1.80;;;1.70;;
4704;SDS011;2366;51.332;6.610;2023-07-20T07:26:58;4.40;;;2.00;;
4704;SDS011;2366;51.332;6.610;2023-07-20T07:29:24;1.60;;;1.40;;
4704;SDS011;2366;51.332;6.610;2023-07-20T07:31:49;1.83;;;1.73;;
4704;SDS011;2366;51.332;6.610;2023-07-20T07:34:15;1.77;;;1.67;;
4704;SDS011;2366;51.332;6.610;2023-07-20T07:36:40;3.10;;;1.80;;
4704;SDS011;2366;51.332;6.610;2023-07-20T07:39:05;1.00;;;1.00;;
4704;SDS011;2366;51.332;6.610;2023-07-20T07:41:31;1.40;;;1.30;;
4704;SDS011;2366;51.332;6.610;2023-07-20T07:43:56;0.60;;;0.50;;
4704;SDS011;2366;51.332;6.610;2023-07-20T07:46:21;0.90;;;0.80;;
4704;SDS011;2366;51.332;6.610;2023-07-20T07:48:47;1.93;;;1.20;;
4704;SDS011;2366;51.332;6.610;2023-07-20T07:51:12;0.83;;;0.83;;
4704;SDS011;2366;51.332;6.610;2023-07-20T07:53:39;0.80;;;0.73;;
4704;SDS011;2366;51.332;6.610;2023-07-20T07:56:06;0.70;;;0.70;;
4704;SDS011;2366;51.332;6.610;2023-07-20T07:58:32;3.13;;;1.23;;
4704;SDS011;2366;51.332;6.610;2023-07-20T08:00:58;0.90;;;0.83;;
4704;SDS011;2366;51.332;6.610;2023-07-20T08:03:23;0.83;;;0.77;;
4704;SDS011;2366;51.332;6.610;2023-07-20T08:05:49;0.80;;;0.67;;
4704;SDS011;2366;51.332;6.610;2023-07-20T08:08:15;0.50;;;0.50;;
4704;SDS011;2366;51.332;6.610;2023-07-20T08:10:40;7.70;;;0.97;;
4704;SDS011;2366;51.332;6.610;2023-07-20T08:13:05;1.47;;;0.73;;
4704;SDS011;2366;51.332;6.610;2023-07-20T08:15:31;1.00;;;0.60;;
4704;SDS011;2366;51.332;6.610;2023-07-20T08:17:56;1.67;;;0.73;;
4704;SDS011;2366;51.332;6.610;2023-07-20T08:20:22;0.77;;;0.70;;
4704;SDS011;2366;51.332;6.610;2023-07-20T08:22:51;0.50;;;0.40;;
4704;SDS011;2366;51.332;6.610;2023-07-20T08:25:18;1.70;;;0.80;;
4704;SDS011;2366;51.332;6.610;2023-07-20T08:27:43;3.07;;;0.73;;
4704;SDS011;2366;51.332;6.610;2023-07-20T08:30:11;0.80;;;0.67;;
4704;SDS011;2366;51.332;6.610;2023-07-20T08:32:36;0.50;;;0.50;;
4704;SDS011;2366;51.332;6.610;2023-07-20T08:35:02;1.13;;;0.73;;
4704;SDS011;2366;51.332;6.610;2023-07-20T08:37:27;1.10;;;0.90;;
4704;SDS011;2366;51.332;6.610;2023-07-20T08:39:53;1.03;;;0.60;;
4704;SDS011;2366;51.332;6.610;2023-07-20T08:42:18;0.57;;;0.53;;
4704;SDS011;2366;51.332;6.610;2023-07-20T08:44:43;0.67;;;0.50;;
4704;SDS011;2366;51.332;6.610;2023-07-20T08:47:11;0.70;;;0.40;;
4704;SDS011;2366;51.332;6.610;2023-07-20T08:49:40;2.00;;;0.60;;
4704;SDS011;2366;51.332;6.610;2023-07-20T08:52:06;0.50;;;0.50;;
4704;SDS011;2366;51.332;6.610;2023-07-20T08:54:32;0.53;;;0.40;;
4704;SDS011;2366;51.332;6.610;2023-07-20T08:57:01;0.47;;;0.40;;
4704;SDS011;2366;51.332;6.610;2023-07-20T08:59:28;0.50;;;0.40;;
4704;SDS011;2366;51.332;6.610;2023-07-20T09:01:55;0.57;;;0.50;;
4704;SDS011;2366;51.332;6.610;2023-07-20T09:04:24;0.60;;;0.60;;
4704;SDS011;2366;51.332;6.610;2023-07-20T09:06:50;0.77;;;0.47;;
4704;SDS011;2366;51.332;6.610;2023-07-20T09:09:16;0.60;;;0.40;;
4704;SDS011;2366;51.332;6.610;2023-07-20T09:11:41;0.73;;;0.53;;
4704;SDS011;2366;51.332;6.610;2023-07-20T09:14:10;0.60;;;0.47;;
4704;SDS011;2366;51.332;6.610;2023-07-20T09:16:48;0.40;;;0.40;;
4704;SDS011;2366;51.332;6.610;2023-07-20T09:19:18;0.87;;;0.50;;
4704;SDS011;2366;51.332;6.610;2023-07-20T09:21:48;2.37;;;0.50;;
4704;SDS011;2366;51.332;6.610;2023-07-20T09:24:17;0.47;;;0.40;;
4704;SDS011;2366;51.332;6.610;2023-07-20T09:26:43;0.40;;;0.40;;
4704;SDS011;2366;51.332;6.610;2023-07-20T09:29:10;1.03;;;0.50;;
4704;SDS011;2366;51.332;6.610;2023-07-20T09:31:39;1.37;;;0.50;;
4704;SDS011;2366;51.332;6.610;2023-07-20T09:34:07;0.50;;;0.50;;
4704;SDS011;2366;51.332;6.610;2023-07-20T09:36:33;1.03;;;0.60;;
4704;SDS011;2366;51.332;6.610;2023-07-20T09:39:00;0.73;;;0.60;;
4704;SDS011;2366;51.332;6.610;2023-07-20T09:41:27;0.90;;;0.50;;
4704;SDS011;2366;51.332;6.610;2023-07-20T09:43:53;2.20;;;0.53;;
4704;SDS011;2366;51.332;6.610;2023-07-20T09:46:19;0.70;;;0.40;;
4704;SDS011;2366;51.332;6.610;2023-07-20T09:48:54;1.90;;;0.60;;
4704;SDS011;2366;51.332;6.610;2023-07-20T09:51:23;0.50;;;0.40;;
4704;SDS011;2366;51.332;6.610;2023-07-20T09:53:50;0.50;;;0.50;;
4704;SDS011;2366;51.332;6.610;2023-07-20T09:56:20;0.40;;;0.40;;
4704;SDS011;2366;51.332;6.610;2023-07-20T09:58:47;1.33;;;0.53;;
4704;SDS011;2366;51.332;6.610;2023-07-20T10:01:13;1.70;;;0.70;;
4704;SDS011;2366;51.332;6.610;2023-07-20T10:03:43;0.70;;;0.50;;
4704;SDS011;2366;51.332;6.610;2023-07-20T10:06:12;0.57;;;0.50;;
4704;SDS011;2366;51.332;6.610;2023-07-20T10:08:45;0.40;;;0.40;;
4704;SDS011;2366;51.332;6.610;2023-07-20T10:11:12;0.70;;;0.70;;
4704;SDS011;2366;51.332;6.610;2023-07-20T10:13:41;0.50;;;0.50;;
4704;SDS011;2366;51.332;6.610;2023-07-20T10:16:12;0.50;;;0.43;;
4704;SDS011;2366;51.332;6.610;2023-07-20T10:18:55;0.63;;;0.50;;
4704;SDS011;2366;51.332;6.610;2023-07-20T10:21:29;1.27;;;0.70;;
4704;SDS011;2366;51.332;6.610;2023-07-20T10:23:58;0.60;;;0.60;;
4704;SDS011;2366;51.332;6.610;2023-07-20T10:26:25;5.90;;;0.70;;
4704;SDS011;2366;51.332;6.610;2023-07-20T10:28:51;0.77;;;0.77;;
4704;SDS011;2366;51.332;6.610;2023-07-20T10:31:18;8.10;;;0.83;;
4704;SDS011;2366;51.332;6.610;2023-07-20T10:33:43;1.97;;;0.70;;
4704;SDS011;2366;51.332;6.610;2023-07-20T10:36:09;2.83;;;0.73;;
4704;SDS011;2366;51.332;6.610;2023-07-20T10:43:49;1.47;;;0.90;;
4704;SDS011;2366;51.332;6.610;2023-07-20T10:46:23;1.73;;;0.50;;
4704;SDS011;2366;51.332;6.610;2023-07-20T10:49:04;1.07;;;0.60;;
4704;SDS011;2366;51.332;6.610;2023-07-20T10:56:56;2.10;;;1.10;;
4704;SDS011;2366;51.332;6.610;2023-07-20T11:01:59;0.70;;;0.70;;
4704;SDS011;2366;51.332;6.610;2023-07-20T11:04:43;0.60;;;0.50;;
4704;SDS011;2366;51.332;6.610;2023-07-20T11:07:41;0.63;;;0.50;;
4704;SDS011;2366;51.332;6.610;2023-07-20T11:10:14;2.60;;;0.90;;
4704;SDS011;2366;51.332;6.610;2023-07-20T11:18:25;1.00;;;0.83;;
4704;SDS011;2366;51.332;6.610;2023-07-20T11:20:51;1.00;;;0.90;;
4704;SDS011;2366;51.332;6.610;2023-07-20T11:23:19;1.00;;;0.80;;
4704;SDS011;2366;51.332;6.610;2023-07-20T11:25:45;0.73;;;0.67;;
4704;SDS011;2366;51.332;6.610;2023-07-20T11:28:11;0.60;;;0.57;;
4704;SDS011;2366;51.332;6.610;2023-07-20T11:30:39;1.13;;;0.50;;
4704;SDS011;2366;51.332;6.610;2023-07-20T11:33:05;0.70;;;0.67;;
4704;SDS011;2366;51.332;6.610;2023-07-20T11:35:41;0.70;;;0.60;;
4704;SDS011;2366;51.332;6.610;2023-07-20T11:38:09;1.00;;;0.90;;
4704;SDS011;2366;51.332;6.610;2023-07-20T11:40:35;0.90;;;0.90;;
4704;SDS011;2366;51.332;6.610;2023-07-20T11:43:00;2.60;;;0.60;;
4704;SDS011;2366;51.332;6.610;2023-07-20T11:45:26;0.60;;;0.50;;
4704;SDS011;2366;51.332;6.610;2023-07-20T11:47:52;0.70;;;0.60;;
4704;SDS011;2366;51.332;6.610;2023-07-20T11:50:18;2.83;;;0.50;;
4704;SDS011;2366;51.332;6.610;2023-07-20T11:52:43;0.60;;;0.60;;
4704;SDS011;2366;51.332;6.610;2023-07-20T11:55:10;1.17;;;0.70;;
4704;SDS011;2366;51.332;6.610;2023-07-20T11:57:37;0.60;;;0.60;;
4704;SDS011;2366;51.332;6.610;2023-07-20T12:00:04;0.57;;;0.57;;
4704;SDS011;2366;51.332;6.610;2023-07-20T12:02:36;0.60;;;0.50;;
4704;SDS011;2366;51.332;6.610;2023-07-20T12:05:04;4.13;;;0.73;;
4704;SDS011;2366;51.332;6.610;2023-07-20T12:07:34;1.03;;;0.67;;
4704;SDS011;2366;51.332;6.610;2023-07-20T12:10:08;0.80;;;0.63;;
4704;SDS011;2366;51.332;6.610;2023-07-20T12:12:39;0.60;;;0.60;;
4704;SDS011;2366;51.332;6.610;2023-07-20T12:15:13;2.50;;;0.70;;
4704;SDS011;2366;51.332;6.610;2023-07-20T12:17:45;1.80;;;0.80;;
4704;SDS011;2366;51.332;6.610;2023-07-20T12:20:12;0.90;;;0.70;;
4704;SDS011;2366;51.332;6.610;2023-07-20T12:22:38;1.10;;;0.50;;
4704;SDS011;2366;51.332;6.610;2023-07-20T12:25:06;0.80;;;0.80;;
4704;SDS011;2366;51.332;6.610;2023-07-20T12:27:32;1.47;;;0.63;;
4704;SDS011;2366;51.332;6.610;2023-07-20T12:29:58;0.70;;;0.60;;
4704;SDS011;2366;51.332;6.610;2023-07-20T12:32:23;0.60;;;0.57;;
4704;SDS011;2366;51.332;6.610;2023-07-20T12:34:49;0.80;;;0.73;;
4704;SDS011;2366;51.332;6.610;2023-07-20T12:37:17;0.70;;;0.63;;
4704;SDS011;2366;51.332;6.610;2023-07-20T12:39:43;2.00;;;0.70;;
4704;SDS011;2366;51.332;6.610;2023-07-20T12:42:12;3.63;;;0.70;;
4704;SDS011;2366;51.332;6.610;2023-07-20T12:44:39;0.53;;;0.50;;
4704;SDS011;2366;51.332;6.610;2023-07-20T12:47:05;1.53;;;0.63;;
4704;SDS011;2366;51.332;6.610;2023-07-20T12:49:30;0.50;;;0.50;;
4704;SDS011;2366;51.332;6.610;2023-07-20T12:51:56;0.80;;;0.60;;
4704;SDS011;2366;51.332;6.610;2023-07-20T12:54:21;0.63;;;0.63;;
4704;SDS011;2366;51.332;6.610;2023-07-20T12:56:46;0.50;;;0.47;;
4704;SDS011;2366;51.332;6.610;2023-07-20T12:59:12;0.80;;;0.50;;
4704;SDS011;2366;51.332;6.610;2023-07-20T13:01:37;2.83;;;0.60;;
4704;SDS011;2366;51.332;6.610;2023-07-20T13:04:03;0.80;;;0.60;;
4704;SDS011;2366;51.332;6.610;2023-07-20T13:06:28;1.20;;;0.70;;
4704;SDS011;2366;51.332;6.610;2023-07-20T13:08:54;1.20;;;0.93;;
4704;SDS011;2366;51.332;6.610;2023-07-20T13:11:21;0.60;;;0.53;;
4704;SDS011;2366;51.332;6.610;2023-07-20T13:13:47;0.77;;;0.70;;
4704;SDS011;2366;51.332;6.610;2023-07-20T13:16:13;2.20;;;0.70;;
4704;SDS011;2366;51.332;6.610;2023-07-20T13:18:39;0.90;;;0.70;;
4704;SDS011;2366;51.332;6.610;2023-07-20T13:21:05;2.77;;;0.80;;
4704;SDS011;2366;51.332;6.610;2023-07-20T13:23:35;0.60;;;0.60;;
4704;SDS011;2366;51.332;6.610;2023-07-20T13:26:02;1.13;;;0.60;;
4704;SDS011;2366;51.332;6.610;2023-07-20T13:28:28;0.90;;;0.50;;
4704;SDS011;2366;51.332;6.610;2023-07-20T13:30:53;0.60;;;0.50;;
4704;SDS011;2366;51.332;6.610;2023-07-20T13:33:18;1.60;;;0.60;;
4704;SDS011;2366;51.332;6.610;2023-07-20T13:35:44;0.67;;;0.67;;
4704;SDS011;2366;51.332;6.610;2023-07-20T13:38:09;0.70;;;0.60;;
4704;SDS011;2366;51.332;6.610;2023-07-20T13:40:35;0.70;;;0.53;;
4704;SDS011;2366;51.332;6.610;2023-07-20T13:43:02;1.33;;;0.70;;
4704;SDS011;2366;51.332;6.610;2023-07-20T13:45:27;1.53;;;0.70;;
4704;SDS011;2366;51.332;6.610;2023-07-20T13:47:52;0.70;;;0.70;;
4704;SDS011;2366;51.332;6.610;2023-07-20T13:50:18;0.80;;;0.80;;
4704;SDS011;2366;51.332;6.610;2023-07-20T13:52:43;0.70;;;0.70;;
4704;SDS011;2366;51.332;6.610;2023-07-20T13:55:08;1.17;;;0.87;;
4704;SDS011;2366;51.332;6.610;2023-07-20T13:57:34;1.23;;;0.63;;
4704;SDS011;2366;51.332;6.610;2023-07-20T13:59:59;0.80;;;0.60;;
4704;SDS011;2366;51.332;6.610;2023-07-20T14:02:26;0.80;;;0.57;;
4704;SDS011;2366;51.332;6.610;2023-07-20T14:04:51;3.50;;;0.90;;
4704;SDS011;2366;51.332;6.610;2023-07-20T14:07:19;1.20;;;0.77;;
4704;SDS011;2366;51.332;6.610;2023-07-20T14:09:45;1.00;;;0.90;;
4704;SDS011;2366;51.332;6.610;2023-07-20T14:12:10;1.03;;;0.70;;
4704;SDS011;2366;51.332;6.610;2023-07-20T14:14:38;1.63;;;0.60;;
4704;SDS011;2366;51.332;6.610;2023-07-20T14:17:04;0.70;;;0.70;;
4704;SDS011;2366;51.332;6.610;2023-07-20T14:19:30;0.90;;;0.50;;
4704;SDS011;2366;51.332;6.610;2023-07-20T14:21:55;0.90;;;0.73;;
4704;SDS011;2366;51.332;6.610;2023-07-20T14:24:23;0.90;;;0.70;;
4704;SDS011;2366;51.332;6.610;2023-07-20T14:26:49;2.60;;;0.90;;
4704;SDS011;2366;51.332;6.610;2023-07-20T14:29:14;0.50;;;0.50;;
4704;SDS011;2366;51.332;6.610;2023-07-20T14:31:39;0.97;;;0.60;;
4704;SDS011;2366;51.332;6.610;2023-07-20T14:34:05;2.10;;;1.00;;
4704;SDS011;2366;51.332;6.610;2023-07-20T14:36:30;1.30;;;1.00;;
4704;SDS011;2366;51.332;6.610;2023-07-20T14:38:56;2.30;;;0.97;;
4704;SDS011;2366;51.332;6.610;2023-07-20T14:41:21;1.00;;;0.70;;
4704;SDS011;2366;51.332;6.610;2023-07-20T14:43:47;1.97;;;0.93;;
4704;SDS011;2366;51.332;6.610;2023-07-20T14:46:13;0.90;;;0.90;;
4704;SDS011;2366;51.332;6.610;2023-07-20T14:48:38;0.90;;;0.90;;
4704;SDS011;2366;51.332;6.610;2023-07-20T14:51:03;0.93;;;0.70;;
4704;SDS011;2366;51.332;6.610;2023-07-20T14:53:30;1.23;;;0.90;;
4704;SDS011;2366;51.332;6.610;2023-07-20T14:55:59;0.93;;;0.77;;
4704;SDS011;2366;51.332;6.610;2023-07-20T14:58:27;0.73;;;0.73;;
4704;SDS011;2366;51.332;6.610;2023-07-20T15:00:52;1.53;;;0.87;;
4704;SDS011;2366;51.332;6.610;2023-07-20T15:03:17;0.60;;;0.60;;
4704;SDS011;2366;51.332;6.610;2023-07-20T15:05:43;2.70;;;0.73;;
4704;SDS011;2366;51.332;6.610;2023-07-20T15:08:08;0.70;;;0.70;;
4704;SDS011;2366;51.332;6.610;2023-07-20T15:10:34;1.50;;;0.67;;
4704;SDS011;2366;51.332;6.610;2023-07-20T15:13:00;0.70;;;0.63;;
4704;SDS011;2366;51.332;6.610;2023-07-20T15:15:25;1.70;;;0.47;;
4704;SDS011;2366;51.332;6.610;2023-07-20T15:17:50;0.67;;;0.63;;
4704;SDS011;2366;51.332;6.610;2023-07-20T15:20:16;1.57;;;1.17;;
4704;SDS011;2366;51.332;6.610;2023-07-20T15:22:42;1.23;;;0.77;;
4704;SDS011;2366;51.332;6.610;2023-07-20T15:25:08;2.50;;;0.80;;
4704;SDS011;2366;51.332;6.610;2023-07-20T15:27:36;0.73;;;0.73;;
4704;SDS011;2366;51.332;6.610;2023-07-20T15:30:03;1.30;;;1.20;;
4704;SDS011;2366;51.332;6.610;2023-07-20T15:32:28;2.10;;;0.90;;
4704;SDS011;2366;51.332;6.610;2023-07-20T15:34:54;0.70;;;0.60;;
4704;SDS011;2366;51.332;6.610;2023-07-20T15:37:19;1.17;;;1.00;;